WetterOnline ( http://www.wetteronline.de )

Wetter aktuell Itzehoe

Aktuelles Wetter: Itzehoe (26m)

6-stündlich | Neueste Meldungen
Ortszeit Temperatur Wetter
Di, 21.08. 14:00 21.7° C wolkenlos
Di, 21.08. 8:00 13.1° C bewölkt
Di, 21.08. 2:00 10.4° C wolkenlos
Mo, 20.08. 20:00 17.6° C fast wolkenlos
Mo, 20.08. 14:00 20.1° C bedeckt
Mo, 20.08. 8:00 18.1° C bewölkt
Mo, 20.08. 2:00 18.7° C bedeckt
So, 19.08. 20:00 21.4° C leicht bewölkt
Ortszeit Temperatur Wetter
Di, 21.08. 15:00 22.4° C wolkig
Di, 21.08. 14:50 22.4° C wolkig
Di, 21.08. 14:40 22.2° C leicht bewölkt
Di, 21.08. 14:30 20.9° C wolkenlos
Di, 21.08. 14:20 20.9° C wolkenlos
Di, 21.08. 14:10 22.3° C wolkenlos
Di, 21.08. 14:00 21.7° C wolkenlos
Di, 21.08. 13:30 21.2° C wolkig
Di, 21.08. 13:00 20.5° C wolkig
Di, 21.08. 12:30 19.4° C fast wolkenlos
Di, 21.08. 12:00 20.2° C fast wolkenlos
Ortszeit Relative Feuchte Sichtweite
Di, 21.08. 14:00 53% 29 km
Di, 21.08. 8:00 94% 17 km
Di, 21.08. 2:00 100% 0.2 km
Mo, 20.08. 20:00 73% 45 km
Mo, 20.08. 14:00 70% 13 km
Mo, 20.08. 8:00 94% 30 km
Mo, 20.08. 2:00 86% 15 km
So, 19.08. 20:00 63% 24 km
Ortszeit Relative Feuchte Sichtweite
Di, 21.08. 15:00 50% 35 km
Di, 21.08. 14:50 50% -
Di, 21.08. 14:40 51% -
Di, 21.08. 14:30 55% 60 km
Di, 21.08. 14:20 55% -
Di, 21.08. 14:10 51% -
Di, 21.08. 14:00 53% 29 km
Di, 21.08. 13:30 56% 30 km
Di, 21.08. 13:00 57% 45 km
Di, 21.08. 12:30 62% 65 km
Di, 21.08. 12:00 57% 23 km
Ortszeit Niederschlagsmenge Niederschlagsart
Di, 21.08. 14:00 0.0 l/m2 in 6 Std. -
Di, 21.08. 8:00 0.1 l/m2 in 12 Std. -
Di, 21.08. 2:00 0.0 l/m2 in 6 Std. -
Mo, 20.08. 20:00 0.2 l/m2 in 12 Std. -
Mo, 20.08. 14:00 0.2 l/m2 in 6 Std. -
Mo, 20.08. 8:00 2 l/m2 in 12 Std. -
Mo, 20.08. 2:00 0.1 l/m2 in 6 Std. -
So, 19.08. 20:00 0.0 l/m2 in 12 Std. -
Ortszeit Niederschlagsmenge Niederschlagsart
Di, 21.08. 15:00 0.0 l/m2 in 1 Std. -
Di, 21.08. 14:50 keine Meldung -
Di, 21.08. 14:40 keine Meldung -
Di, 21.08. 14:30 0.0 l/m2 in 1 Std. -
Di, 21.08. 14:20 keine Meldung -
Di, 21.08. 14:10 keine Meldung -
Di, 21.08. 14:00 0.0 l/m2 in 1 Std. -
Di, 21.08. 13:30 0.0 l/m2 in 1 Std. -
Di, 21.08. 13:00 0.0 l/m2 in 1 Std. -
Di, 21.08. 12:30 0.0 l/m2 in 1 Std. -
Di, 21.08. 12:00 0.0 l/m2 in 1 Std. -
Ortszeit Stärke Spitze Richtung
km/h Bft. km/h Grad Sektor
Di, 21.08. 14:00 4 1 14 280° W
Di, 21.08. 8:00 2 1 6 130° SO
Di, 21.08. 2:00 0 0 14 - -
Mo, 20.08. 20:00 11 2 32 330° NW
Mo, 20.08. 14:00 15 3 30 330° NW
Mo, 20.08. 8:00 7 2 29 300° NW
Mo, 20.08. 2:00 13 3 30 250° W
So, 19.08. 20:00 6 1 24 250° W
Ortszeit Stärke Spitze Richtung
km/h Bft. km/h Grad Sektor
Di, 21.08. 15:00 7 2 14 320° NW
Di, 21.08. 14:50 7 2 - 320° NW
Di, 21.08. 14:40 4 1 - 140° SO
Di, 21.08. 14:30 4 1 11 230° SW
Di, 21.08. 14:20 4 1 - 230° SW
Di, 21.08. 14:10 6 1 - 250° W
Di, 21.08. 14:00 4 1 14 280° W
Di, 21.08. 13:30 7 2 14 320° NW
Di, 21.08. 13:00 6 1 11 330° NW
Di, 21.08. 12:30 6 1 11 260° W
Di, 21.08. 12:00 4 1 11 330° NW
Ortszeit Untergrenze Bedeckung Gattung
total tief tief mittel hoch
Di, 21.08. 14:00 - 0/8 0/8 - - -
Di, 21.08. 8:00 780 m 7/8 7/8 - - -
Di, 21.08. 2:00 - 0/8 0/8 - - -
Mo, 20.08. 20:00 840 m 1/8 1/8 - - -
Mo, 20.08. 14:00 840 m 8/8 8/8 - - -
Mo, 20.08. 8:00 300 m 7/8 7/8 - - -
Mo, 20.08. 2:00 510 m 8/8 8/8 - - -
So, 19.08. 20:00 1470 m 2/8 2/8 - - -
Ortszeit Bedeckungsgrad in Achtel und Wolkenuntergrenze
Di, 21.08. 15:00 5(1320m)
Di, 21.08. 14:50 5(1320m)
Di, 21.08. 14:40 3(1290m)
Di, 21.08. 14:30 1(1320m)
Di, 21.08. 14:20 keine Wolken
Di, 21.08. 14:10 keine Wolken
Di, 21.08. 14:00 keine Wolken
Di, 21.08. 13:30 5(1350m)
Di, 21.08. 13:00 6(1410m)
Di, 21.08. 12:30 1(900m)
Di, 21.08. 12:00 1(900m)
Ortszeit Luftdruck NN (hPa) Tendenz (hPa in 3 Std.)
Di, 21.08. 14:00 1022 - 0,6
Di, 21.08. 8:00 1022 + 0,8
Di, 21.08. 2:00 1021 + 0,5
Mo, 20.08. 20:00 1019 + 0,5
Mo, 20.08. 14:00 1017 + 1,2
Mo, 20.08. 8:00 1014 + 0,2
Mo, 20.08. 2:00 1015 - 0,6
So, 19.08. 20:00 1016 - 0,9
Ortszeit Luftdruck NN (hPa) Tendenz (hPa in 3 Std.)
Di, 21.08. 15:00 1022 - 0,7
Di, 21.08. 14:50 1022 keine Meldung
Di, 21.08. 14:40 1022 keine Meldung
Di, 21.08. 14:30 1022 - 0,7
Di, 21.08. 14:20 1022 keine Meldung
Di, 21.08. 14:10 1022 keine Meldung
Di, 21.08. 14:00 1022 - 0,6
Di, 21.08. 13:30 1022 - 0,5
Di, 21.08. 13:00 1022 - 0,3
Di, 21.08. 12:30 1022 0,0
Di, 21.08. 12:00 1022 + 0,3
Ortszeit Schneehöhe (cm)
Di, 21.08. 14:00 -
Di, 21.08. 8:00 -
Di, 21.08. 2:00 -
Mo, 20.08. 20:00 -
Mo, 20.08. 14:00 -
Mo, 20.08. 8:00 -
Mo, 20.08. 2:00 -
So, 19.08. 20:00 -
Ortszeit Schneehöhe (cm)
Di, 21.08. 15:00 -
Di, 21.08. 14:50 -
Di, 21.08. 14:40 -
Di, 21.08. 14:30 -
Di, 21.08. 14:20 -
Di, 21.08. 14:10 -
Di, 21.08. 14:00 -
Di, 21.08. 13:30 -
Di, 21.08. 13:00 -
Di, 21.08. 12:30 -
Di, 21.08. 12:00 -
Link zu dieser Seite / Seite empfehlen

Das Wetter in ...